Time;durP1;ratioP1;P1;durP2;ratioP2;P2;SDS_P1;SDS_P2;PMS_P1;PMS_P2;Temp;Humidity;BMP_temperature;BMP_pressure;BME280_temperature;BME280_humidity;BME280_pressure;Samples;Min_cycle;Max_cycle;Signal;HPM_P1;HPM_P2
2023/03/13 00:00:57;;;;;;;6.53;3.83;;;8.50;99.90;;;;;;4873579;29;20205;-66
2023/03/13 00:03:26;;;;;;;7.78;3.38;;;8.50;99.90;;;;;;4871500;29;20685;-66
2023/03/13 00:05:56;;;;;;;8.10;4.25;;;8.40;99.90;;;;;;4869126;29;20653;-66
2023/03/13 00:08:24;;;;;;;6.20;3.45;;;8.40;99.90;;;;;;4876040;29;20216;-65
2023/03/13 00:10:51;;;;;;;6.75;3.80;;;8.40;99.90;;;;;;4877215;29;20209;-66
2023/03/13 00:13:18;;;;;;;5.57;3.30;;;8.40;99.90;;;;;;4872004;29;20393;-65
2023/03/13 00:15:45;;;;;;;10.32;3.97;;;8.40;99.90;;;;;;4872043;29;20218;-65
2023/03/13 00:18:12;;;;;;;7.00;3.58;;;8.40;99.90;;;;;;4863562;29;20203;-65
2023/03/13 00:20:40;;;;;;;6.65;3.70;;;8.40;99.90;;;;;;4865374;29;20295;-65
2023/03/13 00:23:07;;;;;;;8.10;3.63;;;8.30;99.90;;;;;;4870138;29;20232;-65
2023/03/13 00:25:34;;;;;;;8.50;3.60;;;8.30;99.90;;;;;;4864251;29;20741;-65
2023/03/13 00:28:01;;;;;;;12.32;4.25;;;8.20;99.90;;;;;;4868036;29;20336;-65
2023/03/13 00:30:28;;;;;;;8.70;3.60;;;8.30;99.90;;;;;;4868889;29;20274;-65
2023/03/13 00:32:55;;;;;;;8.15;3.53;;;8.20;99.90;;;;;;4863336;29;20680;-65
2023/03/13 00:35:22;;;;;;;6.75;3.42;;;8.20;99.90;;;;;;4869581;29;20315;-65
2023/03/13 00:37:51;;;;;;;9.05;3.40;;;8.20;99.90;;;;;;4866397;29;20717;-65
2023/03/13 00:40:19;;;;;;;7.72;3.25;;;8.20;99.90;;;;;;4875457;29;20303;-65
2023/03/13 00:42:46;;;;;;;7.55;4.57;;;8.10;99.90;;;;;;4873896;29;20246;-65
2023/03/13 00:45:13;;;;;;;9.40;3.17;;;8.10;99.90;;;;;;4870549;29;20256;-65
2023/03/13 00:47:40;;;;;;;6.35;3.70;;;8.10;99.90;;;;;;4871817;29;20204;-65
2023/03/13 00:50:08;;;;;;;8.63;3.70;;;8.10;99.90;;;;;;4871087;29;20209;-65
2023/03/13 00:52:35;;;;;;;8.57;3.35;;;8.10;99.90;;;;;;4873685;29;20218;-65
2023/03/13 00:55:03;;;;;;;5.93;3.58;;;8.10;99.90;;;;;;4871066;29;20571;-65
2023/03/13 00:57:30;;;;;;;9.05;3.60;;;8.10;99.90;;;;;;4863757;29;20202;-66
2023/03/13 00:59:57;;;;;;;6.80;3.15;;;8.10;99.90;;;;;;4873436;29;20210;-65
2023/03/13 01:02:24;;;;;;;8.88;3.92;;;8.10;99.90;;;;;;4874910;29;20213;-66
2023/03/13 01:04:53;;;;;;;8.05;3.50;;;8.10;99.90;;;;;;4870070;29;20725;-66
2023/03/13 01:07:20;;;;;;;12.25;3.90;;;8.10;99.90;;;;;;4874650;29;20212;-65
2023/03/13 01:09:47;;;;;;;8.40;3.83;;;8.10;99.90;;;;;;4864013;29;20198;-66
2023/03/13 01:12:15;;;;;;;9.50;3.38;;;8.10;99.90;;;;;;4873805;29;20292;-66
2023/03/13 01:14:42;;;;;;;7.95;3.40;;;8.10;99.90;;;;;;4875033;29;20205;-65
2023/03/13 01:17:09;;;;;;;9.48;3.75;;;8.20;99.90;;;;;;4867712;29;20212;-65
2023/03/13 01:19:36;;;;;;;8.70;3.55;;;8.20;99.90;;;;;;4875136;29;20756;-65
2023/03/13 01:22:03;;;;;;;7.13;3.40;;;8.20;99.90;;;;;;4869821;29;20196;-65
2023/03/13 01:24:30;;;;;;;8.32;3.63;;;8.30;99.90;;;;;;4872091;29;20258;-65
2023/03/13 01:26:58;;;;;;;9.70;3.70;;;8.30;99.90;;;;;;4870918;29;20543;-65
2023/03/13 01:29:26;;;;;;;9.93;4.35;;;8.30;99.90;;;;;;4870142;29;20215;-66
2023/03/13 01:31:53;;;;;;;6.75;3.60;;;8.30;99.90;;;;;;4867296;29;20645;-65
2023/03/13 01:34:20;;;;;;;6.60;4.35;;;8.30;99.90;;;;;;4875664;29;20203;-65
2023/03/13 01:36:49;;;;;;;9.55;3.53;;;8.40;99.90;;;;;;4866551;29;20210;-65
2023/03/13 01:39:17;;;;;;;10.82;4.10;;;8.40;99.90;;;;;;4870615;29;20311;-65
2023/03/13 01:41:44;;;;;;;7.10;3.75;;;8.40;99.90;;;;;;4876118;29;20203;-66
2023/03/13 01:44:21;;;;;;;9.63;3.92;;;8.40;99.90;;;;;;4870273;29;20308;-65
2023/03/13 01:46:49;;;;;;;9.60;3.25;;;8.40;99.90;;;;;;4870366;29;20212;-65
2023/03/13 01:49:19;;;;;;;6.70;3.47;;;8.40;99.90;;;;;;4869941;29;20239;-66
2023/03/13 01:51:50;;;;;;;9.65;4.53;;;8.40;99.90;;;;;;4865352;29;20245;-65
2023/03/13 01:54:21;;;;;;;8.75;3.97;;;8.40;99.90;;;;;;4869794;29;20297;-65
2023/03/13 01:56:52;;;;;;;7.78;3.95;;;8.40;99.90;;;;;;4867255;29;20206;-65
2023/03/13 01:59:22;;;;;;;10.63;3.97;;;8.30;99.90;;;;;;4873887;29;21981;-65
2023/03/13 02:01:52;;;;;;;8.05;3.72;;;8.40;99.90;;;;;;4868243;29;20720;-66
2023/03/13 02:04:21;;;;;;;8.25;3.88;;;8.30;99.90;;;;;;4875406;29;21568;-66
2023/03/13 02:06:52;;;;;;;8.07;3.75;;;8.30;99.90;;;;;;4872188;29;20217;-66
2023/03/13 02:09:23;;;;;;;8.40;3.85;;;8.30;99.90;;;;;;4867740;29;20205;-66
2023/03/13 02:11:55;;;;;;;7.15;3.13;;;8.30;99.90;;;;;;4870943;29;20201;-66
2023/03/13 02:14:26;;;;;;;7.03;3.60;;;8.40;99.90;;;;;;4866897;29;20261;-66
2023/03/13 02:16:55;;;;;;;6.78;3.65;;;8.40;99.90;;;;;;4871998;29;20228;-65
2023/03/13 02:19:30;;;;;;;6.25;3.42;;;8.40;99.90;;;;;;4870927;29;20214;-65
2023/03/13 02:22:06;;;;;;;6.20;3.78;;;8.50;99.90;;;;;;4870412;29;20202;-65
2023/03/13 02:24:41;;;;;;;6.53;3.78;;;8.50;99.90;;;;;;4868332;29;20245;-65
2023/03/13 02:27:09;;;;;;;9.05;4.10;;;8.50;99.90;;;;;;4876957;29;20297;-66
2023/03/13 02:29:37;;;;;;;7.93;3.83;;;8.50;99.90;;;;;;4864082;29;20227;-65
2023/03/13 02:32:04;;;;;;;9.77;4.60;;;8.50;99.90;;;;;;4872165;29;20208;-66
2023/03/13 02:34:36;;;;;;;8.40;3.78;;;8.50;99.90;;;;;;4870150;29;20210;-65
2023/03/13 02:37:06;;;;;;;7.97;3.63;;;8.50;99.90;;;;;;4870014;29;20195;-65
2023/03/13 02:39:34;;;;;;;5.78;3.25;;;8.50;99.90;;;;;;4869698;29;20245;-65
2023/03/13 02:42:03;;;;;;;8.48;3.47;;;8.50;99.90;;;;;;4865531;29;20566;-65
2023/03/13 02:44:31;;;;;;;8.38;3.80;;;8.50;99.90;;;;;;4877524;29;20733;-65
2023/03/13 02:46:58;;;;;;;8.23;3.40;;;8.50;99.90;;;;;;4877600;29;20297;-65
2023/03/13 02:49:27;;;;;;;6.50;3.60;;;8.50;99.90;;;;;;4865217;29;20313;-65
2023/03/13 02:51:56;;;;;;;9.23;4.00;;;8.50;99.90;;;;;;4871676;29;20308;-65
2023/03/13 02:54:26;;;;;;;5.93;3.30;;;8.50;99.90;;;;;;4874144;29;20201;-65
2023/03/13 02:56:57;;;;;;;13.00;4.22;;;8.50;99.90;;;;;;4864398;29;20201;-65
2023/03/13 02:59:25;;;;;;;7.40;3.15;;;8.50;99.90;;;;;;4875661;29;20213;-65
2023/03/13 03:01:53;;;;;;;8.00;3.30;;;8.50;99.90;;;;;;4871871;29;20217;-65
2023/03/13 03:04:21;;;;;;;4.20;2.72;;;8.50;99.90;;;;;;4875916;29;20249;-65
2023/03/13 03:06:49;;;;;;;6.63;2.78;;;8.60;99.90;;;;;;4876002;29;20239;-65
2023/03/13 03:09:16;;;;;;;5.60;3.10;;;8.60;99.90;;;;;;4872005;29;20224;-65
2023/03/13 03:11:43;;;;;;;4.78;2.40;;;8.60;99.90;;;;;;4875560;29;20210;-66
2023/03/13 03:14:12;;;;;;;6.10;3.05;;;8.70;99.90;;;;;;4876427;29;20222;-65
2023/03/13 03:16:39;;;;;;;8.15;3.30;;;8.70;99.90;;;;;;4877840;29;20305;-66
2023/03/13 03:19:09;;;;;;;4.90;2.25;;;8.70;99.90;;;;;;4875131;29;20217;-65
2023/03/13 03:21:37;;;;;;;7.65;2.70;;;8.70;99.90;;;;;;4876448;29;20211;-65
2023/03/13 03:24:04;;;;;;;4.47;2.50;;;8.70;99.90;;;;;;4875769;29;20222;-66
2023/03/13 03:26:31;;;;;;;6.10;2.92;;;8.70;99.90;;;;;;4866507;29;20625;-65
2023/03/13 03:28:58;;;;;;;5.28;2.33;;;8.70;99.90;;;;;;4871137;29;20721;-66
2023/03/13 03:31:25;;;;;;;6.40;2.58;;;8.70;99.90;;;;;;4866864;29;20613;-66
2023/03/13 03:33:53;;;;;;;7.40;2.50;;;8.70;99.90;;;;;;4868060;29;20207;-65
2023/03/13 03:36:23;;;;;;;6.00;2.47;;;8.60;99.90;;;;;;4865875;29;20705;-65
2023/03/13 03:38:50;;;;;;;5.43;2.10;;;8.70;99.90;;;;;;4874511;29;20779;-65
2023/03/13 03:41:18;;;;;;;4.32;2.40;;;8.60;99.90;;;;;;4876353;29;20240;-65
2023/03/13 03:43:47;;;;;;;5.90;1.95;;;8.70;99.90;;;;;;4871753;29;20230;-66
2023/03/13 03:46:14;;;;;;;5.72;2.40;;;8.70;99.90;;;;;;4862041;29;20241;-65
2023/03/13 03:48:41;;;;;;;6.70;2.70;;;8.70;99.90;;;;;;4871286;29;20711;-65
2023/03/13 03:51:08;;;;;;;6.25;2.05;;;8.80;99.90;;;;;;4870263;29;20674;-65
2023/03/13 03:53:37;;;;;;;5.90;2.20;;;8.80;99.90;;;;;;4866680;29;20574;-66
2023/03/13 03:56:04;;;;;;;4.10;1.90;;;8.90;99.90;;;;;;4871474;29;20770;-65
2023/03/13 03:58:32;;;;;;;3.25;1.80;;;8.90;99.90;;;;;;4868548;29;20240;-65
2023/03/13 04:00:59;;;;;;;3.10;1.60;;;9.00;99.90;;;;;;4869304;29;20238;-65
2023/03/13 04:03:26;;;;;;;4.03;1.67;;;9.10;99.90;;;;;;4864187;29;20203;-66
2023/03/13 04:05:53;;;;;;;3.83;1.92;;;9.10;99.90;;;;;;4867267;29;20325;-65
2023/03/13 04:08:20;;;;;;;3.20;1.77;;;9.20;99.90;;;;;;4870945;29;20200;-66
2023/03/13 04:10:49;;;;;;;4.25;1.75;;;9.30;99.90;;;;;;4865766;29;20350;-66
2023/03/13 04:13:16;;;;;;;3.70;1.58;;;9.40;99.90;;;;;;4868753;29;20203;-66
2023/03/13 04:15:43;;;;;;;5.35;1.60;;;9.40;99.90;;;;;;4869636;29;20924;-66
2023/03/13 04:18:10;;;;;;;2.30;1.60;;;9.50;99.90;;;;;;4862730;29;20241;-66
2023/03/13 04:20:38;;;;;;;2.92;1.30;;;9.50;99.90;;;;;;4859957;29;20272;-65
2023/03/13 04:23:05;;;;;;;3.47;1.42;;;9.70;99.90;;;;;;4870732;29;20210;-65
2023/03/13 04:25:31;;;;;;;2.58;1.50;;;9.80;99.90;;;;;;4868185;29;20241;-65
2023/03/13 04:28:00;;;;;;;4.05;1.98;;;9.80;99.90;;;;;;4866885;29;20255;-65
2023/03/13 04:30:27;;;;;;;2.20;1.50;;;9.90;99.90;;;;;;4865253;29;20206;-65
2023/03/13 04:32:54;;;;;;;5.43;1.58;;;10.00;99.90;;;;;;4872077;29;20673;-65
2023/03/13 04:35:21;;;;;;;2.55;1.02;;;10.10;99.90;;;;;;4868657;29;20230;-65
2023/03/13 04:37:48;;;;;;;2.55;1.20;;;10.30;99.90;;;;;;4867211;29;20216;-65
2023/03/13 04:40:15;;;;;;;1.67;0.95;;;10.50;99.90;;;;;;4864302;29;20647;-65
2023/03/13 04:42:43;;;;;;;1.30;0.90;;;10.80;99.90;;;;;;4873546;29;20210;-65
2023/03/13 04:45:12;;;;;;;1.33;0.80;;;11.00;99.90;;;;;;4865044;29;20235;-66
2023/03/13 04:47:39;;;;;;;1.30;1.00;;;11.20;99.90;;;;;;4869594;29;20244;-66
2023/03/13 04:50:07;;;;;;;1.00;0.80;;;11.40;99.90;;;;;;4873390;29;20202;-66
2023/03/13 04:52:34;;;;;;;1.75;0.90;;;11.50;99.90;;;;;;4863858;29;20672;-65
2023/03/13 04:55:01;;;;;;;1.58;0.77;;;11.70;99.90;;;;;;4870834;29;20230;-66
2023/03/13 04:57:28;;;;;;;1.63;0.90;;;11.80;99.90;;;;;;4868345;29;20195;-66
2023/03/13 04:59:55;;;;;;;0.82;0.70;;;11.90;99.90;;;;;;4867524;29;20270;-65
2023/03/13 05:02:24;;;;;;;1.20;0.80;;;12.00;99.90;;;;;;4863505;29;20200;-65
2023/03/13 05:04:51;;;;;;;1.27;0.90;;;12.00;99.90;;;;;;4869541;29;20710;-65
2023/03/13 05:07:18;;;;;;;1.05;0.88;;;12.10;99.90;;;;;;4865766;29;20214;-65
2023/03/13 05:09:45;;;;;;;1.13;0.70;;;12.10;99.90;;;;;;4866277;29;20259;-65
2023/03/13 05:12:12;;;;;;;1.95;0.80;;;12.10;99.90;;;;;;4864457;29;20282;-66
2023/03/13 05:14:39;;;;;;;1.98;0.80;;;12.10;99.90;;;;;;4862702;29;20750;-66
2023/03/13 05:17:06;;;;;;;1.05;0.80;;;12.10;99.90;;;;;;4870406;29;20294;-66
2023/03/13 05:19:34;;;;;;;2.00;0.70;;;12.10;99.90;;;;;;4868343;29;20203;-66
2023/03/13 05:22:01;;;;;;;1.80;0.98;;;12.10;99.90;;;;;;4872161;29;20215;-67
2023/03/13 05:24:28;;;;;;;0.93;0.80;;;12.10;99.90;;;;;;4868940;29;20771;-66
2023/03/13 05:26:55;;;;;;;1.43;0.87;;;12.10;99.90;;;;;;4858599;29;20754;-68
2023/03/13 05:29:22;;;;;;;1.43;0.70;;;12.10;99.90;;;;;;4865150;29;20546;-67
2023/03/13 05:31:49;;;;;;;0.90;0.77;;;12.10;99.90;;;;;;4866608;29;20482;-66
2023/03/13 05:34:16;;;;;;;1.17;0.80;;;12.10;99.90;;;;;;4869535;29;20210;-67
2023/03/13 05:36:45;;;;;;;1.47;0.70;;;12.10;99.90;;;;;;4864458;29;20452;-67
2023/03/13 05:39:12;;;;;;;1.42;0.70;;;12.10;99.90;;;;;;4868185;29;20550;-66
2023/03/13 05:41:39;;;;;;;1.40;1.10;;;12.20;99.90;;;;;;4867362;29;20234;-66
2023/03/13 05:44:06;;;;;;;1.13;0.85;;;12.20;99.90;;;;;;4865157;29;20547;-66
2023/03/13 05:46:33;;;;;;;1.45;0.70;;;12.20;99.90;;;;;;4865260;29;20234;-66
2023/03/13 05:49:00;;;;;;;0.90;0.70;;;12.10;99.90;;;;;;4863892;29;20203;-66
2023/03/13 05:51:27;;;;;;;1.05;0.68;;;12.20;99.90;;;;;;4875190;29;20689;-66
2023/03/13 05:53:55;;;;;;;1.55;0.93;;;12.20;99.90;;;;;;4873290;29;20206;-66
2023/03/13 05:56:23;;;;;;;1.20;0.87;;;12.20;99.90;;;;;;4870331;29;20235;-67
2023/03/13 05:58:50;;;;;;;1.00;0.80;;;12.20;99.90;;;;;;4872467;29;21184;-66
2023/03/13 06:01:16;;;;;;;1.10;0.70;;;12.20;99.90;;;;;;4868676;29;20205;-66
2023/03/13 06:03:44;;;;;;;1.30;1.20;;;12.30;99.90;;;;;;4872495;29;20535;-69
2023/03/13 06:06:11;;;;;;;0.70;0.60;;;12.30;99.90;;;;;;4863480;29;20687;-67
2023/03/13 06:08:38;;;;;;;1.70;0.70;;;12.30;99.90;;;;;;4866348;29;20459;-67
2023/03/13 06:11:06;;;;;;;1.27;0.80;;;12.30;99.90;;;;;;4856971;29;20557;-67
2023/03/13 06:13:33;;;;;;;0.90;0.70;;;12.50;99.90;;;;;;4866360;29;20207;-67
2023/03/13 06:16:00;;;;;;;0.93;0.68;;;12.40;99.90;;;;;;4864986;29;20508;-67
2023/03/13 06:18:27;;;;;;;0.90;0.60;;;12.40;99.90;;;;;;4868318;29;20203;-67
2023/03/13 06:20:59;;;;;;;1.85;0.80;;;12.40;99.90;;;;;;4861789;29;20583;-67
2023/03/13 06:23:27;;;;;;;0.90;0.60;;;12.40;99.90;;;;;;4853899;29;20204;-67
2023/03/13 06:25:55;;;;;;;0.87;0.73;;;12.50;99.90;;;;;;4872955;29;20503;-67
2023/03/13 06:28:23;;;;;;;1.15;0.70;;;12.50;99.90;;;;;;4867964;29;20535;-67
2023/03/13 06:30:50;;;;;;;0.90;0.60;;;12.50;99.90;;;;;;4867481;29;20243;-66
2023/03/13 06:33:17;;;;;;;0.80;0.60;;;12.80;99.90;;;;;;4873589;29;20203;-67
2023/03/13 06:35:44;;;;;;;0.70;0.63;;;12.50;99.90;;;;;;4868421;29;20309;-67
2023/03/13 06:38:12;;;;;;;1.60;0.70;;;12.60;99.90;;;;;;4865879;29;20473;-67
2023/03/13 06:40:39;;;;;;;1.05;0.77;;;12.60;99.90;;;;;;4860338;29;20220;-67
2023/03/13 06:43:06;;;;;;;1.33;0.70;;;12.90;99.90;;;;;;4870775;29;20208;-67
2023/03/13 06:45:36;;;;;;;0.80;0.60;;;12.70;99.90;;;;;;4871196;29;20586;-67
2023/03/13 06:48:04;;;;;;;1.20;0.90;;;12.70;99.90;;;;;;4872329;29;20321;-67
2023/03/13 06:50:31;;;;;;;2.20;0.70;;;12.70;99.90;;;;;;4862627;29;20224;-67
2023/03/13 06:52:58;;;;;;;0.80;0.70;;;12.90;99.90;;;;;;4867656;29;20471;-67
2023/03/13 06:55:26;;;;;;;1.10;0.80;;;12.70;99.90;;;;;;4867834;29;20480;-67
2023/03/13 06:57:53;;;;;;;1.00;0.70;;;12.70;99.90;;;;;;4864485;29;20199;-67
2023/03/13 07:00:21;;;;;;;0.90;0.70;;;12.70;99.90;;;;;;4860145;29;20654;-67
2023/03/13 07:02:50;;;;;;;0.70;0.70;;;12.70;99.90;;;;;;4857588;29;20501;-67
2023/03/13 07:05:18;;;;;;;1.23;0.77;;;12.70;99.90;;;;;;4866734;29;20495;-67
2023/03/13 07:07:45;;;;;;;1.40;0.70;;;12.70;99.90;;;;;;4863897;29;20555;-66
2023/03/13 07:10:12;;;;;;;1.03;0.77;;;12.70;99.90;;;;;;4866972;29;20555;-67
2023/03/13 07:12:39;;;;;;;0.93;0.60;;;12.70;99.90;;;;;;4866879;29;20561;-67
2023/03/13 07:15:08;;;;;;;0.87;0.60;;;12.80;99.90;;;;;;4873557;29;20492;-67
2023/03/13 07:17:36;;;;;;;0.97;0.77;;;12.80;99.90;;;;;;4868422;29;20472;-67
2023/03/13 07:20:08;;;;;;;0.90;0.60;;;12.80;99.90;;;;;;4870905;29;20461;-67
2023/03/13 07:22:35;;;;;;;0.60;0.60;;;12.80;99.90;;;;;;4862523;29;20467;-67
2023/03/13 07:25:03;;;;;;;0.90;0.67;;;12.80;99.90;;;;;;4866526;29;20476;-66
2023/03/13 07:27:30;;;;;;;1.13;0.60;;;12.80;99.90;;;;;;4865049;29;20512;-67
2023/03/13 07:29:58;;;;;;;0.90;0.70;;;12.80;99.90;;;;;;4865637;29;20838;-67
2023/03/13 07:32:25;;;;;;;0.70;0.60;;;12.80;99.90;;;;;;4865092;29;20465;-67
2023/03/13 07:34:52;;;;;;;1.13;0.70;;;12.80;99.90;;;;;;4867251;29;20480;-67
2023/03/13 07:37:20;;;;;;;12.23;1.17;;;12.80;99.90;;;;;;4866093;29;20507;-67
2023/03/13 07:39:47;;;;;;;0.70;0.67;;;12.80;99.90;;;;;;4870527;29;20465;-67
2023/03/13 07:42:14;;;;;;;0.70;0.60;;;12.80;99.90;;;;;;4864101;29;20481;-67
2023/03/13 07:44:41;;;;;;;0.80;0.50;;;12.80;99.90;;;;;;4854134;29;20483;-67
2023/03/13 07:47:09;;;;;;;0.70;0.60;;;12.80;99.90;;;;;;4847925;29;20572;-67
2023/03/13 07:49:40;;;;;;;0.60;0.50;;;12.90;99.90;;;;;;4844527;29;20467;-67
2023/03/13 07:52:07;;;;;;;0.85;0.60;;;12.90;99.90;;;;;;4849027;29;20530;-67
2023/03/13 07:54:35;;;;;;;0.90;0.77;;;13.00;99.90;;;;;;4859193;29;20249;-67
2023/03/13 07:57:02;;;;;;;1.33;0.70;;;13.00;99.90;;;;;;4860479;29;20468;-67
2023/03/13 07:59:30;;;;;;;0.63;0.60;;;13.00;99.90;;;;;;4859995;29;21064;-67
2023/03/13 08:01:57;;;;;;;1.87;0.70;;;13.00;99.90;;;;;;4862586;29;20496;-67
2023/03/13 08:04:24;;;;;;;0.70;0.63;;;13.10;99.90;;;;;;4864808;29;20844;-67
2023/03/13 08:06:53;;;;;;;1.50;0.60;;;13.10;99.90;;;;;;4862845;29;20677;-67
2023/03/13 08:09:20;;;;;;;1.20;0.70;;;13.20;99.90;;;;;;4868061;29;20464;-67
2023/03/13 08:11:48;;;;;;;1.10;0.73;;;13.20;99.90;;;;;;4864545;29;20832;-67
2023/03/13 08:14:15;;;;;;;0.90;0.70;;;13.30;99.90;;;;;;4868199;29;20488;-67
2023/03/13 08:16:42;;;;;;;1.13;0.70;;;13.30;99.90;;;;;;4863244;29;20979;-67
2023/03/13 08:19:10;;;;;;;1.10;0.80;;;13.40;99.90;;;;;;4858501;29;20472;-67
2023/03/13 08:21:38;;;;;;;0.90;0.70;;;13.50;99.90;;;;;;4863170;29;20465;-67
2023/03/13 08:24:06;;;;;;;1.10;0.70;;;13.50;99.90;;;;;;4856948;29;20931;-67
2023/03/13 08:26:34;;;;;;;1.07;0.97;;;13.60;99.90;;;;;;4867080;29;20501;-68
2023/03/13 08:29:05;;;;;;;1.60;0.80;;;13.70;99.90;;;;;;4864908;29;20461;-67
2023/03/13 08:31:34;;;;;;;0.80;0.70;;;13.70;99.90;;;;;;4862002;29;20469;-67
2023/03/13 08:34:02;;;;;;;1.47;0.80;;;13.80;99.90;;;;;;4856064;29;20496;-66
2023/03/13 08:36:30;;;;;;;0.77;0.70;;;13.90;99.90;;;;;;4849186;29;21161;-66
2023/03/13 08:38:59;;;;;;;0.90;0.70;;;13.90;99.90;;;;;;4854586;29;20671;-67
2023/03/13 08:41:28;;;;;;;0.87;0.87;;;14.00;99.90;;;;;;4857709;29;20481;-66
2023/03/13 08:43:56;;;;;;;2.70;1.13;;;14.00;99.90;;;;;;4856057;29;20928;-66
2023/03/13 08:46:24;;;;;;;1.20;1.10;;;14.10;99.90;;;;;;4858761;29;20498;-66
2023/03/13 08:48:53;;;;;;;2.50;0.87;;;14.10;99.90;;;;;;4854659;29;20469;-67
2023/03/13 08:51:22;;;;;;;0.80;0.80;;;14.10;99.90;;;;;;4861931;29;20468;-66
2023/03/13 08:53:50;;;;;;;1.20;0.77;;;14.20;99.90;;;;;;4851992;29;20461;-66
2023/03/13 08:56:19;;;;;;;1.23;0.70;;;14.20;99.90;;;;;;4852234;29;20481;-66
2023/03/13 08:58:49;;;;;;;1.10;1.03;;;14.30;99.90;;;;;;4861093;29;20457;-67
2023/03/13 09:01:17;;;;;;;1.17;0.80;;;14.30;99.90;;;;;;4854938;29;20479;-67
2023/03/13 09:03:45;;;;;;;1.67;0.97;;;14.30;99.90;;;;;;4846397;29;20475;-67
2023/03/13 09:06:13;;;;;;;1.10;0.97;;;14.40;99.90;;;;;;4845104;29;20486;-66
2023/03/13 09:08:41;;;;;;;1.10;0.80;;;14.40;99.90;;;;;;4845458;29;20473;-66
2023/03/13 09:11:10;;;;;;;0.80;0.80;;;14.40;99.90;;;;;;4849625;29;20497;-66
2023/03/13 09:13:38;;;;;;;1.50;1.00;;;14.40;99.90;;;;;;4847464;29;20477;-67
2023/03/13 09:16:07;;;;;;;1.40;1.00;;;14.50;99.90;;;;;;4835612;29;20464;-67
2023/03/13 09:18:35;;;;;;;1.50;0.80;;;14.50;99.90;;;;;;4847211;29;20467;-67
2023/03/13 09:21:05;;;;;;;2.77;1.00;;;14.60;99.90;;;;;;4845378;29;21021;-67
2023/03/13 09:23:33;;;;;;;1.20;1.10;;;14.60;99.90;;;;;;4869521;29;20467;-66
2023/03/13 09:26:00;;;;;;;1.67;1.43;;;14.70;99.90;;;;;;4869395;29;20530;-66
2023/03/13 09:28:27;;;;;;;1.80;1.20;;;14.70;99.90;;;;;;4867313;29;20491;-66
2023/03/13 09:30:55;;;;;;;1.30;1.20;;;14.80;99.90;;;;;;4866616;29;20491;-66
2023/03/13 09:33:22;;;;;;;1.23;1.00;;;15.00;99.90;;;;;;4867076;29;20467;-67
2023/03/13 09:35:50;;;;;;;1.50;1.17;;;15.10;99.90;;;;;;4867516;29;20998;-67
2023/03/13 09:38:19;;;;;;;1.17;0.90;;;15.20;99.90;;;;;;4864829;29;20606;-67
2023/03/13 09:40:48;;;;;;;2.60;1.40;;;15.20;99.90;;;;;;4866771;29;20478;-67
2023/03/13 09:43:25;;;;;;;1.27;1.17;;;15.20;99.90;;;;;;4856294;29;20461;-67
2023/03/13 09:45:57;;;;;;;0.90;0.83;;;15.30;99.90;;;;;;4861760;29;20491;-67
2023/03/13 09:48:31;;;;;;;1.43;1.00;;;15.20;99.90;;;;;;4876073;29;20554;-67
2023/03/13 09:51:05;;;;;;;2.20;1.23;;;15.30;99.90;;;;;;4869644;29;20467;-67
2023/03/13 09:53:41;;;;;;;1.40;1.20;;;15.40;99.90;;;;;;4866208;29;20963;-67
2023/03/13 09:56:15;;;;;;;3.13;1.30;;;15.60;99.90;;;;;;4871893;29;20558;-67
2023/03/13 09:58:50;;;;;;;2.30;1.50;;;15.90;99.90;;;;;;4866504;29;20931;-68
2023/03/13 10:01:21;;;;;;;1.30;1.20;;;16.10;99.90;;;;;;4864807;29;20479;-67
2023/03/13 10:03:58;;;;;;;1.80;1.40;;;16.20;99.90;;;;;;4867574;29;20455;-67
2023/03/13 10:06:27;;;;;;;1.60;1.40;;;16.30;99.90;;;;;;4873289;29;20518;-67
2023/03/13 10:09:00;;;;;;;1.27;1.17;;;16.40;99.90;;;;;;4871177;29;20494;-67
2023/03/13 10:11:31;;;;;;;2.37;1.37;;;16.50;99.90;;;;;;4868132;29;20459;-67
2023/03/13 10:14:02;;;;;;;1.73;1.37;;;16.60;99.90;;;;;;4865998;29;20865;-67
2023/03/13 10:16:35;;;;;;;3.87;1.40;;;16.80;99.90;;;;;;4868193;29;20506;-66
2023/03/13 10:19:12;;;;;;;2.10;1.40;;;16.80;99.90;;;;;;4862887;29;20881;-67
2023/03/13 10:21:41;;;;;;;2.07;1.20;;;16.80;99.90;;;;;;4867269;29;20468;-67
2023/03/13 10:24:17;;;;;;;2.30;1.47;;;17.10;99.90;;;;;;4867367;29;20515;-67
2023/03/13 10:26:45;;;;;;;1.70;1.33;;;17.50;99.90;;;;;;4861754;29;20487;-67
2023/03/13 10:29:21;;;;;;;1.37;1.20;;;17.70;99.90;;;;;;4864864;29;20880;-67
2023/03/13 10:31:57;;;;;;;1.87;1.30;;;17.90;99.90;;;;;;4871670;29;20959;-68
2023/03/13 10:34:24;;;;;;;2.53;1.47;;;18.00;99.90;;;;;;4869525;29;20506;-68
2023/03/13 10:36:57;;;;;;;1.53;1.30;;;18.00;99.90;;;;;;4861722;29;21115;-67
2023/03/13 10:39:27;;;;;;;1.60;1.30;;;18.00;99.90;;;;;;4874963;29;20543;-67
2023/03/13 10:41:59;;;;;;;2.20;1.20;;;17.90;99.90;;;;;;4864125;29;21339;-67
2023/03/13 10:44:32;;;;;;;1.20;1.10;;;17.60;99.90;;;;;;4860520;29;20487;-68
2023/03/13 10:47:03;;;;;;;1.60;1.50;;;17.30;99.90;;;;;;4864834;29;20525;-67
2023/03/13 10:49:32;;;;;;;1.43;1.30;;;17.10;99.90;;;;;;4872090;29;20535;-67
2023/03/13 10:52:02;;;;;;;1.50;1.40;;;16.90;99.90;;;;;;4867150;29;20466;-66
2023/03/13 10:54:34;;;;;;;1.43;1.33;;;16.80;99.90;;;;;;4870551;29;20547;-68
2023/03/13 10:57:27;;;;;;;1.43;1.30;;;16.90;99.90;;;;;;4868620;29;20475;-67
2023/03/13 10:59:55;;;;;;;1.47;1.30;;;16.90;99.90;;;;;;4869746;29;20467;-67
2023/03/13 11:02:26;;;;;;;2.53;1.23;;;17.10;99.90;;;;;;4873769;29;20475;-67
2023/03/13 11:04:54;;;;;;;1.60;1.50;;;17.30;99.90;;;;;;4867594;29;20506;-67
2023/03/13 11:07:26;;;;;;;2.10;1.30;;;17.50;99.90;;;;;;4873436;29;20499;-70
2023/03/13 11:10:04;;;;;;;1.60;1.50;;;17.70;99.90;;;;;;4860670;29;20558;-66
2023/03/13 11:12:34;;;;;;;2.30;1.60;;;17.90;99.90;;;;;;4864368;29;20979;-66
2023/03/13 11:15:06;;;;;;;1.50;1.40;;;17.90;99.90;;;;;;4868169;29;20495;-67
2023/03/13 11:17:38;;;;;;;2.00;1.40;;;17.80;99.90;;;;;;4862809;29;20948;-67
2023/03/13 11:20:17;;;;;;;1.60;1.30;;;17.90;99.90;;;;;;4865231;29;20460;-67
2023/03/13 11:22:53;;;;;;;2.70;1.70;;;17.80;99.90;;;;;;4860724;29;20463;-67
2023/03/13 11:25:28;;;;;;;1.90;1.40;;;17.70;99.90;;;;;;4871869;29;20485;-67
2023/03/13 11:28:05;;;;;;;2.10;1.23;;;17.90;99.90;;;;;;4870041;29;20569;-67
2023/03/13 11:30:47;;;;;;;2.73;1.90;;;18.70;99.90;;;;;;4870310;29;21985;-67
2023/03/13 11:33:28;;;;;;;2.20;1.20;;;18.90;99.90;;;;;;4871757;29;20453;-67
2023/03/13 11:36:01;;;;;;;1.50;1.40;;;19.40;99.90;;;;;;4866871;29;20547;-67
2023/03/13 11:38:34;;;;;;;2.10;1.60;;;19.70;99.90;;;;;;4865555;29;20778;-67
2023/03/13 11:41:14;;;;;;;3.87;1.50;;;19.80;99.90;;;;;;4860940;29;20470;-67
2023/03/13 11:44:10;;;;;;;2.57;1.70;;;19.60;99.90;;;;;;4864223;29;20571;-67
2023/03/13 11:46:45;;;;;;;1.80;1.57;;;19.10;99.90;;;;;;4870187;29;21085;-66
2023/03/13 11:49:47;;;;;;;1.50;1.40;;;18.80;99.90;;;;;;4862162;29;20471;-66
2023/03/13 11:52:29;;;;;;;1.87;1.70;;;19.10;99.90;;;;;;4866229;29;20558;-67
2023/03/13 11:55:12;;;;;;;2.20;1.47;;;19.30;99.90;;;;;;4868700;29;20505;-67
2023/03/13 11:57:47;;;;;;;1.40;1.30;;;19.70;99.90;;;;;;4859507;29;20477;-66
2023/03/13 12:00:31;;;;;;;1.50;1.40;;;20.10;99.90;;;;;;4868180;29;20551;-67
2023/03/13 12:03:04;;;;;;;4.33;1.53;;;20.40;99.90;;;;;;4866852;29;20462;-66
2023/03/13 12:05:38;;;;;;;1.40;1.30;;;20.40;99.90;;;;;;4860831;29;21075;-67
2023/03/13 12:08:11;;;;;;;1.57;1.07;;;20.70;99.90;;;;;;4870799;29;21065;-67
2023/03/13 12:10:43;;;;;;;4.20;1.60;;;21.00;99.90;;;;;;4867123;29;20550;-67
2023/03/13 12:13:16;;;;;;;1.73;1.27;;;20.70;99.90;;;;;;4870518;29;20988;-67
2023/03/13 12:15:46;;;;;;;1.63;1.23;;;20.90;99.90;;;;;;4862790;29;20488;-67
2023/03/13 12:18:19;;;;;;;1.90;1.40;;;21.10;99.90;;;;;;4868521;29;20478;-67
2023/03/13 12:20:56;;;;;;;1.40;1.30;;;21.10;99.90;;;;;;4869220;29;20462;-67
2023/03/13 12:23:30;;;;;;;1.30;1.20;;;21.00;99.90;;;;;;4866657;29;20462;-67
2023/03/13 12:26:02;;;;;;;3.97;1.30;;;20.90;99.90;;;;;;4868230;29;20463;-68
2023/03/13 12:28:37;;;;;;;1.53;1.27;;;21.10;99.90;;;;;;4859164;29;20510;-81
2023/03/13 12:31:21;;;;;;;1.63;1.10;;;21.20;99.90;;;;;;4863182;29;20452;-67
2023/03/13 12:33:55;;;;;;;2.40;1.70;;;21.40;99.90;;;;;;4865865;29;20476;-67
2023/03/13 12:36:28;;;;;;;1.40;1.30;;;21.30;99.90;;;;;;4862446;29;20816;-67
2023/03/13 12:38:58;;;;;;;3.53;1.20;;;21.20;99.90;;;;;;4864429;29;20456;-67
2023/03/13 12:41:30;;;;;;;1.80;1.40;;;21.20;99.90;;;;;;4863513;29;20478;-67
2023/03/13 12:43:58;;;;;;;2.00;1.00;;;21.30;99.90;;;;;;4866424;29;20479;-67
2023/03/13 12:46:44;;;;;;;1.40;1.20;;;21.30;99.90;;;;;;4872303;29;20541;-67
2023/03/13 12:49:35;;;;;;;1.60;1.20;;;21.30;99.90;;;;;;4866763;29;20607;-67
2023/03/13 12:52:34;;;;;;;1.90;1.30;;;21.60;99.90;;;;;;4860662;29;20555;-67
2023/03/13 12:55:20;;;;;;;1.43;1.33;;;22.00;99.90;;;;;;4864076;29;20538;-67
2023/03/13 12:58:09;;;;;;;1.67;1.20;;;22.40;99.90;;;;;;4869692;29;20459;-67
2023/03/13 13:00:40;;;;;;;2.10;1.30;;;22.40;99.90;;;;;;4874594;29;20874;-67
2023/03/13 13:03:18;;;;;;;1.77;1.30;;;22.50;99.90;;;;;;4866803;29;20467;-67